Dubois, WY (82513)

8:23 PM MDT on August 23, 2016 (GMT -0600)
KG6JIY Dubois WY | | Change Station
Active Advisory: Fire Weather Warning

Elev 7050 ft 43.54 °N, 109.67 °W | Updated 8 minutes ago

Overcast
Overcast
61.8 °F
Feels Like 61.8 °F
N
0.0
Wind Variable Wind from West
Gusts 7.0 mph

Today
High -- | Low -- °F
--% Chance of Precip.
Yesterday
High -- | Low -- °F
Precip. -- in
Pressure 30.21 in
Visibility 7.0 miles
Clouds Scattered Clouds 2300 ft
Scattered Clouds 3700 ft
Overcast 11000 ft
Dew Point 23 °F
Humidity 23%
Rainfall 0.00 in
Snow Depth Not available.
6:33 AM 8:08 PM
Waning Gibbous, 62% visible
METAR KDUB 240215Z AUTO 28010KT 7SM SCT023 SCT037 OVC110 15/M10 A3021 RMK AO2
Pressure 30.21 in
Visibility 7.0 miles
Clouds Scattered Clouds 2300 ft
Scattered Clouds 3700 ft
Overcast 11000 ft
Dew Point 23 °F
Humidity 23%
Rainfall 0.00 in
Snow Depth Not available.
6:33 AM 8:08 PM
Waning Gibbous, 62% visible
METAR KDUB 240215Z AUTO 28010KT 7SM SCT023 SCT037 OVC110 15/M10 A3021 RMK AO2

10-Day Weather Forecast

Almanac

Astronomy

Aug. 23, 2016 Rise Set
Actual Time
Civil Twilight
Nautical Twilight
Astronomical Twilight
Moon
Length of Visible Light
Length of Day
Tomorrow will be .
, % of the Moon is Illuminated

Today's Extremes

State Highs State Lows

Community

WunderPhotos

Upload Photos

1,934,523 photos uploaded!

WunderBlog® & News

Nearby

Air Quality

  Air Quality AQ Index Pollutant
Not available.

Snow Depth

Station Depth Elevation

Earthquake Activity

City Distance Mag. Time & Date
Minimum magnitude displayed is 2.5.

Coastal Water Temperatures

Place Temperature

Stations

Nearby Weather Stations

Station Location Temp. Windchill Dew Point Humidity Wind Precip. Elev Updated Type
                   

Watches & Warnings

Fire Weather Warning
Issued: 1:32 PM MDT Aug. 23, 2016 – National Weather Service

... Red flag warning remains in effect until 9 PM MDT this evening
for low relative humidity... windy conditions... and critically...

* wind on Tuesday... west to southwest 10 to 20 mph with gusts 25
to 30 mph. Isolated gusts to 40 mph will be possible from time
to time.

* Humidity on Tuesday... as low as 10 percent

* impacts... any fires that develop will likely spread rapidly.
Outdoor burning is not recommended.

Precautionary/preparedness actions...

A red flag warning means that critical fire weather conditions
are either occurring now... .or will shortly. A combination of
strong winds... low relative humidity... and warm temperatures can
contribute to extreme fire behavior.